IDs: Format: Raw Decoded Include TAF

Data at: 2031 UTC 23 Mar 2018

METAR for:KPEZ (Pleasanton Muni, TX, US)
Text:KPEZ 232015Z AUTO 16011G16KT 10SM OVC043 27/16 A3003 RMK AO2 T02650162
Temperature: 26.5°C ( 80°F)
Dewpoint: 16.2°C ( 61°F) [RH = 53%]
Pressure (altimeter):30.03 inches Hg (1017.0 mb)
Winds:from the SSE (160 degrees) at 13 MPH (11 knots; 5.7 m/s) gusting to 18 MPH (16 knots; 8.2 m/s)
Visibility:10 or more sm (16+ km)
Ceiling:4300 feet AGL
Clouds: overcast cloud deck at 4300 feet AGL
QC Flag:automated observation with no human augmentation